CAG weather

Cagliari Elmas Airport
Cagliari, Sardinia, Italy

Public forecast

Using degrees Celsius for public forecast. Weather courtesy of forecast.io.

Current aviation weather report (METAR) for Cagliari Elmas Airport

Retrieved 2019/12/14 04:20 UTC (20 minutes ago):

LIEE 140420Z 32016KT 9999 SCT035 15/12 Q1005

Aviation forecast (TAF) for Cagliari Elmas Airport

Retrieved 2019-12-14 00:00 UTC (5 hours ago):

TAF LIEE 132300Z 1400/1424 30030G40KT 9999 SCT030 BECMG 1412/1414 28008KT